Nearby METAR Reports

 

EGQL - Leuchars Raf, United Kingdom
Distance from station: SW 17km
Updated: 29/11/2020 00:50
Fog
Fog
 Wind from WNW
Wind: WNW 3 mph , 6 km/h
Temperature: 0°C
Dew Point: 0°C
Humidity: 100%
Barometer: 1026 hPa
Summary: Fog
Visibility: 0 mile , 0 km
2020/11/28 23:50 EGQL 282350Z 30003KT 0150 FG VV/// 00/00 Q1026 RMK RED
EGPN - Dundee/Riverside, United Kingdom
Distance from station: WSW 20km
Updated: 28/11/2020 16:50
NOT Current
Clear
Clear
 Wind from calm
Wind: Calm
Temperature: 4°C
Dew Point: 2°C
Humidity: 87%
Barometer: 1023 hPa
Summary: Clear
Visibility: greater than 7 miles , 10 km
2020/11/28 15:50 EGPN 281550Z 00000KT CAVOK 04/02 Q1023
 
EGPH - Edinburgh Airpor, United Kingdom
Distance from station: SSW 74km
Updated: 29/11/2020 01:20
Mist, Partly cloudy
Mist, Partly cloudy
 Wind from SW
Wind: SW 3 mph , 6 km/h
Temperature: -3°C
Dew Point: -3°C
Humidity: 100%
Barometer: 1025 hPa
Summary: Mist
Clouds: Partly cloudy
Visibility: 3 miles , 5 km
2020/11/29 00:20 EGPH 290020Z 23003KT 5000 BR NSC M03/M03 Q1025
EGPD - Aberdeen/Dyce, United Kingdom
Distance from station: NNE 82km
Updated: 29/11/2020 01:20
Mostly cloudy
Mostly cloudy
 Wind from varies
Wind: varies 2 mph , 4 km/h
Temperature: -2°C
Dew Point: -2°C
Humidity: 100%
Barometer: 1026 hPa
Clouds: Mostly cloudy
Visibility: 6 miles , 10 km
Cloud details: Partly cloudy 671 m
Mostly cloudy 853 m
2020/11/29 00:20 EGPD 290020Z AUTO VRB02KT 9999 SCT022 BKN028 M02/M02 Q1026 NOSIG